createdAt,value
2018-02-26T00:00:21.741Z,-6.70
2018-02-26T00:02:50.358Z,-6.70
2018-02-26T00:05:18.624Z,-6.70
2018-02-26T00:07:46.898Z,-6.70
2018-02-26T00:10:15.240Z,-6.70
2018-02-26T00:12:44.255Z,-6.60
2018-02-26T00:15:12.551Z,-6.70
2018-02-26T00:17:40.810Z,-6.60
2018-02-26T00:20:09.406Z,-6.60
2018-02-26T00:22:41.659Z,-6.60
2018-02-26T00:25:10.246Z,-6.50
2018-02-26T00:27:38.534Z,-6.50
2018-02-26T00:30:06.807Z,-6.50
2018-02-26T00:32:35.143Z,-6.50
2018-02-26T00:35:05.424Z,-6.50
2018-02-26T00:37:33.825Z,-6.50
2018-02-26T00:40:02.096Z,-6.50
2018-02-26T00:42:30.695Z,-6.50
2018-02-26T00:44:58.981Z,-6.60
2018-02-26T00:47:27.255Z,-6.60
2018-02-26T00:49:56.323Z,-6.60
2018-02-26T00:52:24.622Z,-6.60
2018-02-26T00:54:53.693Z,-6.70
2018-02-26T00:57:21.962Z,-6.70
2018-02-26T00:59:50.267Z,-6.80
2018-02-26T01:02:19.332Z,-6.80
2018-02-26T01:04:47.992Z,-6.80
2018-02-26T01:07:16.259Z,-6.90
2018-02-26T01:09:44.589Z,-6.90
2018-02-26T01:12:13.663Z,-6.90
2018-02-26T01:14:41.940Z,-6.80
2018-02-26T01:17:10.253Z,-6.90
2018-02-26T01:19:38.530Z,-7.00
2018-02-26T01:22:07.200Z,-7.00
2018-02-26T01:24:35.459Z,-7.10
2018-02-26T01:27:03.788Z,-7.10
2018-02-26T01:29:32.076Z,-7.10
2018-02-26T01:32:00.378Z,-7.20
2018-02-26T01:34:28.708Z,-7.20
2018-02-26T01:36:56.970Z,-7.20
2018-02-26T01:39:25.592Z,-7.20
2018-02-26T01:41:53.830Z,-7.30
2018-02-26T01:44:22.101Z,-7.30
2018-02-26T01:46:50.388Z,-7.30
2018-02-26T01:49:18.690Z,-7.30
2018-02-26T01:51:47.756Z,-7.30
2018-02-26T01:54:16.028Z,-7.30
2018-02-26T01:56:44.315Z,-7.30
2018-02-26T01:59:12.587Z,-7.30
2018-02-26T02:01:41.170Z,-7.30
2018-02-26T02:04:09.460Z,-7.20
2018-02-26T02:06:37.728Z,-7.20
2018-02-26T02:09:06.019Z,-7.20
2018-02-26T02:11:34.294Z,-7.20
2018-02-26T02:14:02.619Z,-7.20
2018-02-26T02:16:30.898Z,-7.20
2018-02-26T02:18:59.239Z,-7.30
2018-02-26T02:21:27.505Z,-7.30
2018-02-26T02:23:56.061Z,-7.30
2018-02-26T02:26:24.334Z,-7.30
2018-02-26T02:28:52.619Z,-7.40
2018-02-26T02:31:20.931Z,-7.40
2018-02-26T02:33:49.184Z,-7.40
2018-02-26T02:36:17.481Z,-7.50
2018-02-26T02:38:45.747Z,-7.50
2018-02-26T02:41:14.331Z,-7.50
2018-02-26T02:43:42.606Z,-7.50
2018-02-26T02:46:10.886Z,-7.60
2018-02-26T02:48:39.191Z,-7.60
2018-02-26T02:51:08.264Z,-7.70
2018-02-26T02:53:36.548Z,-7.70
2018-02-26T02:56:04.825Z,-7.70
2018-02-26T02:58:33.117Z,-7.80
2018-02-26T03:01:01.387Z,-7.80
2018-02-26T03:03:29.948Z,-7.90
2018-02-26T03:05:58.219Z,-7.90
2018-02-26T03:08:26.489Z,-7.90
2018-02-26T03:10:54.808Z,-8.00
2018-02-26T03:13:23.081Z,-8.00
2018-02-26T03:15:51.373Z,-8.00
2018-02-26T03:18:19.644Z,-8.10
2018-02-26T03:20:47.963Z,-8.10
2018-02-26T03:23:16.241Z,-8.10
2018-02-26T03:25:44.855Z,-8.10
2018-02-26T03:28:13.130Z,-8.10
2018-02-26T03:30:41.394Z,-8.10
2018-02-26T03:33:09.684Z,-8.10
2018-02-26T03:35:37.961Z,-8.10
2018-02-26T03:38:06.270Z,-8.20
2018-02-26T03:40:34.553Z,-8.20
2018-02-26T03:43:02.817Z,-8.20
2018-02-26T03:45:31.123Z,-8.20
2018-02-26T03:48:00.172Z,-8.30
2018-02-26T03:50:28.463Z,-8.30
2018-02-26T03:52:56.760Z,-8.30
2018-02-26T03:55:25.838Z,-8.40
2018-02-26T03:57:54.109Z,-8.50
2018-02-26T04:00:22.388Z,-8.40
2018-02-26T04:02:50.685Z,-8.40
2018-02-26T04:05:18.985Z,-8.40
2018-02-26T04:07:47.282Z,-8.40
2018-02-26T04:10:15.562Z,-8.50
2018-02-26T04:12:43.886Z,-8.50
2018-02-26T04:15:12.173Z,-8.50
2018-02-26T04:17:40.481Z,-8.50
2018-02-26T04:20:08.759Z,-8.60
2018-02-26T04:22:37.047Z,-8.60
2018-02-26T04:25:05.359Z,-8.60
2018-02-26T04:27:33.649Z,-8.60
2018-02-26T04:30:01.944Z,-8.60
2018-02-26T04:32:30.220Z,-8.60
2018-02-26T04:34:58.793Z,-8.60
2018-02-26T04:37:27.068Z,-8.60
2018-02-26T04:39:55.363Z,-8.70
2018-02-26T04:42:24.454Z,-8.70
2018-02-26T04:44:52.730Z,-8.70
2018-02-26T04:47:21.045Z,-8.70
2018-02-26T04:49:49.341Z,-8.70
2018-02-26T04:52:17.630Z,-8.70
2018-02-26T04:54:45.895Z,-8.70
2018-02-26T04:57:14.203Z,-8.70
2018-02-26T04:59:42.473Z,-8.70
2018-02-26T05:02:10.734Z,-8.70
2018-02-26T05:04:39.032Z,-8.70
2018-02-26T05:07:07.306Z,-8.70
2018-02-26T05:09:35.596Z,-8.70
2018-02-26T05:12:03.897Z,-8.70
2018-02-26T05:14:32.204Z,-8.70
2018-02-26T05:17:00.474Z,-8.70
2018-02-26T05:19:29.508Z,-8.70
2018-02-26T05:21:57.809Z,-8.80
2018-02-26T05:24:26.177Z,-8.70
2018-02-26T05:26:54.468Z,-8.70
2018-02-26T05:29:22.744Z,-8.70
2018-02-26T05:31:51.329Z,-8.70
2018-02-26T05:34:19.610Z,-8.70
2018-02-26T05:36:47.884Z,-8.70
2018-02-26T05:39:16.168Z,-8.70
2018-02-26T05:41:44.489Z,-8.70
2018-02-26T05:44:12.785Z,-8.70
2018-02-26T05:46:41.061Z,-8.70
2018-02-26T05:49:09.369Z,-8.70
2018-02-26T05:51:37.638Z,-8.70
2018-02-26T05:54:05.902Z,-8.70
2018-02-26T05:56:34.189Z,-8.70
2018-02-26T05:59:02.512Z,-8.70
2018-02-26T06:01:31.557Z,-8.70
2018-02-26T06:03:59.955Z,-8.70
2018-02-26T06:06:28.239Z,-8.70
2018-02-26T06:08:56.499Z,-8.70
2018-02-26T06:11:24.777Z,-8.70
2018-02-26T06:13:53.846Z,-8.80
2018-02-26T06:16:22.123Z,-8.80
2018-02-26T06:18:50.417Z,-8.80
2018-02-26T06:21:18.711Z,-8.70
2018-02-26T06:23:47.019Z,-8.70
2018-02-26T06:26:16.082Z,-8.70
2018-02-26T06:28:44.363Z,-8.70
2018-02-26T06:31:12.669Z,-8.70
2018-02-26T06:33:40.948Z,-8.70
2018-02-26T06:36:09.262Z,-8.70
2018-02-26T06:38:37.524Z,-8.70
2018-02-26T06:41:05.810Z,-8.60
2018-02-26T06:43:34.113Z,-8.60
2018-02-26T06:46:02.388Z,-8.50
2018-02-26T06:48:30.678Z,-8.50
2018-02-26T06:50:58.958Z,-8.50
2018-02-26T06:53:27.290Z,-8.50
2018-02-26T06:55:55.554Z,-8.50
2018-02-26T06:58:24.607Z,-8.30
2018-02-26T07:00:52.987Z,-8.40
2018-02-26T07:03:21.241Z,-8.30
2018-02-26T07:05:49.614Z,-8.20
2018-02-26T07:08:17.895Z,-8.20
2018-02-26T07:10:46.240Z,-8.10
2018-02-26T07:13:14.552Z,-8.10
2018-02-26T07:15:42.853Z,-8.00
2018-02-26T07:18:12.051Z,-8.00
2018-02-26T07:20:40.461Z,-7.90
2018-02-26T07:23:08.838Z,-7.80
2018-02-26T07:25:37.104Z,-7.80
2018-02-26T07:28:05.382Z,-7.70
2018-02-26T07:30:33.681Z,-7.60
2018-02-26T07:33:01.952Z,-7.60
2018-02-26T07:35:30.281Z,-7.50
2018-02-26T07:37:58.554Z,-7.40
2018-02-26T07:40:26.930Z,-7.40
2018-02-26T07:42:55.239Z,-7.30
2018-02-26T07:45:23.504Z,-7.20
2018-02-26T07:47:51.978Z,-7.10
2018-02-26T07:50:20.314Z,-7.00
2018-02-26T07:52:49.365Z,-6.90
2018-02-26T07:55:17.700Z,-7.00
2018-02-26T07:57:46.724Z,-6.80
2018-02-26T08:00:15.040Z,-6.80
2018-02-26T08:02:43.328Z,-6.70
2018-02-26T08:05:11.685Z,-6.70
2018-02-26T08:07:39.951Z,-6.60
2018-02-26T08:10:08.248Z,-6.50
2018-02-26T08:12:36.577Z,-6.40
2018-02-26T08:15:05.603Z,-6.20
2018-02-26T08:17:33.940Z,-6.20
2018-02-26T08:20:03.120Z,-6.10
2018-02-26T08:22:31.389Z,-6.10
2018-02-26T08:24:59.706Z,-6.00
2018-02-26T08:27:28.736Z,-5.80
2018-02-26T08:29:57.059Z,-5.80
2018-02-26T08:32:26.099Z,-5.70
2018-02-26T08:34:54.402Z,-5.80
2018-02-26T08:37:22.701Z,-5.70
2018-02-26T08:39:51.005Z,-5.70
2018-02-26T08:42:19.342Z,-5.60
2018-02-26T08:44:47.614Z,-5.60
2018-02-26T08:47:15.907Z,-5.60
2018-02-26T08:49:44.235Z,-5.50
2018-02-26T08:52:13.178Z,-5.50
2018-02-26T08:54:41.443Z,-5.30
2018-02-26T08:57:09.748Z,-5.40
2018-02-26T08:59:38.107Z,-5.40
2018-02-26T09:02:06.360Z,-5.40
2018-02-26T09:04:34.652Z,-5.40
2018-02-26T09:07:02.942Z,-5.40
2018-02-26T09:09:31.227Z,-5.40
2018-02-26T09:11:59.510Z,-5.40
2018-02-26T09:14:27.829Z,-5.40
2018-02-26T09:16:56.311Z,-5.40
2018-02-26T09:19:26.199Z,-5.30
2018-02-26T09:21:54.544Z,-5.30
2018-02-26T09:24:23.584Z,-5.20
2018-02-26T09:26:52.633Z,-5.10
2018-02-26T09:29:21.597Z,-5.10
2018-02-26T09:31:49.894Z,-5.00
2018-02-26T09:34:18.209Z,-4.90
2018-02-26T09:36:47.216Z,-4.80
2018-02-26T09:39:16.348Z,-4.70
2018-02-26T09:41:44.648Z,-4.70
2018-02-26T09:44:12.918Z,-4.60
2018-02-26T09:46:42.012Z,-4.40
2018-02-26T09:49:10.318Z,-4.40
2018-02-26T09:51:38.623Z,-4.30
2018-02-26T09:54:06.895Z,-4.10
2018-02-26T09:56:35.186Z,-3.90
2018-02-26T09:59:04.254Z,-3.80
2018-02-26T10:01:32.582Z,-3.80
2018-02-26T10:04:00.852Z,-3.70
2018-02-26T10:06:29.199Z,-3.50
2018-02-26T10:08:57.538Z,-3.40
2018-02-26T10:11:25.808Z,-3.20
2018-02-26T10:13:54.115Z,-3.10
2018-02-26T10:16:22.389Z,-2.90
2018-02-26T10:18:50.830Z,-2.80
2018-02-26T10:21:19.149Z,-2.70
2018-02-26T10:23:47.498Z,-2.70
2018-02-26T10:26:15.789Z,-2.60
2018-02-26T10:28:44.986Z,-2.50
2018-02-26T10:31:13.291Z,-2.40
2018-02-26T10:33:41.593Z,-2.50
2018-02-26T10:36:10.666Z,-2.60
2018-02-26T10:38:38.934Z,-2.60
2018-02-26T10:41:07.309Z,-2.60
2018-02-26T10:43:35.591Z,-2.60
2018-02-26T10:46:03.898Z,-2.70
2018-02-26T10:48:32.989Z,-2.80
2018-02-26T10:51:01.271Z,-2.80
2018-02-26T10:53:29.582Z,-2.80
2018-02-26T10:55:57.916Z,-2.60
2018-02-26T10:58:26.222Z,-2.40
2018-02-26T11:00:54.510Z,-2.20
2018-02-26T11:03:22.826Z,-2.00
2018-02-26T11:05:52.041Z,-1.80
2018-02-26T11:08:20.341Z,-1.70
2018-02-26T11:10:49.588Z,-1.70
2018-02-26T11:13:17.865Z,-1.70
2018-02-26T11:15:47.762Z,-1.70
2018-02-26T11:18:17.889Z,-1.70
2018-02-26T11:20:46.226Z,-1.70
2018-02-26T11:23:14.544Z,-1.60
2018-02-26T11:25:42.853Z,-1.60
2018-02-26T11:28:11.153Z,-1.60
2018-02-26T11:30:39.438Z,-1.70
2018-02-26T11:33:07.734Z,-2.00
2018-02-26T11:35:36.802Z,-2.30
2018-02-26T11:38:05.082Z,-2.40
2018-02-26T11:40:33.362Z,-2.30
2018-02-26T11:43:01.669Z,-2.30
2018-02-26T11:45:30.735Z,-2.00
2018-02-26T11:47:59.032Z,-2.10
2018-02-26T11:50:30.244Z,-1.80
2018-02-26T11:52:58.639Z,-1.30
2018-02-26T11:55:27.063Z,-0.40
2018-02-26T11:57:56.087Z,0.80
2018-02-26T12:00:24.379Z,0.80
2018-02-26T12:02:52.641Z,0.80
2018-02-26T12:05:22.178Z,0.70
2018-02-26T12:07:50.442Z,0.50
2018-02-26T12:10:19.542Z,0.40
2018-02-26T12:12:47.828Z,0.40
2018-02-26T12:15:16.169Z,0.30
2018-02-26T12:17:44.446Z,0.30
2018-02-26T12:20:12.790Z,0.30
2018-02-26T12:22:41.068Z,0.50
2018-02-26T12:25:10.125Z,2.50
2018-02-26T12:27:38.442Z,2.40
2018-02-26T12:30:07.458Z,4.80
2018-02-26T12:32:35.768Z,4.80
2018-02-26T12:35:04.034Z,5.70
2018-02-26T12:37:32.314Z,6.30
2018-02-26T12:40:00.632Z,6.20
2018-02-26T12:42:28.927Z,5.50
2018-02-26T12:44:57.241Z,4.60
2018-02-26T12:47:25.534Z,3.70
2018-02-26T12:49:53.836Z,3.10
2018-02-26T12:52:22.799Z,2.50
2018-02-26T12:54:52.089Z,1.90
2018-02-26T12:57:20.370Z,1.40
2018-02-26T12:59:49.500Z,1.30
2018-02-26T13:02:17.859Z,1.30
2018-02-26T13:04:47.007Z,2.50
2018-02-26T13:07:15.427Z,3.80
2018-02-26T13:09:43.713Z,4.00
2018-02-26T13:12:12.046Z,3.70
2018-02-26T13:14:41.134Z,5.00
2018-02-26T13:17:10.241Z,5.80
2018-02-26T13:19:39.295Z,6.00
2018-02-26T13:22:07.569Z,6.00
2018-02-26T13:24:35.926Z,5.60
2018-02-26T13:27:04.302Z,5.00
2018-02-26T13:29:32.627Z,4.40
2018-02-26T13:32:00.912Z,3.90
2018-02-26T13:34:29.240Z,3.20
2018-02-26T13:36:57.517Z,2.80
2018-02-26T13:39:25.827Z,2.30
2018-02-26T13:41:54.215Z,1.70
2018-02-26T13:44:22.470Z,1.30
2018-02-26T13:46:50.766Z,0.90
2018-02-26T13:49:19.044Z,0.50
2018-02-26T13:51:47.340Z,0.00
2018-02-26T13:54:16.834Z,-0.30
2018-02-26T13:56:45.401Z,-0.60
2018-02-26T13:59:14.195Z,-0.80
2018-02-26T14:01:46.053Z,-0.90
2018-02-26T14:04:14.335Z,-1.10
2018-02-26T14:06:42.931Z,-1.10
2018-02-26T14:09:11.209Z,-1.20
2018-02-26T14:11:39.486Z,-1.30
2018-02-26T14:14:07.843Z,-1.20
2018-02-26T14:16:36.163Z,-1.30
2018-02-26T14:19:04.466Z,-1.30
2018-02-26T14:21:32.753Z,-1.30
2018-02-26T14:24:01.073Z,-1.30
2018-02-26T14:26:29.342Z,-1.20
2018-02-26T14:28:57.701Z,-1.00
2018-02-26T14:31:25.987Z,-1.00
2018-02-26T14:33:54.350Z,-1.10
2018-02-26T14:36:23.704Z,-1.20
2018-02-26T14:38:53.509Z,-1.30
2018-02-26T14:41:21.804Z,-1.30
2018-02-26T14:43:50.097Z,-1.30
2018-02-26T14:46:19.202Z,-1.30
2018-02-26T14:48:48.814Z,-1.40
2018-02-26T14:51:35.100Z,-1.30
2018-02-26T14:54:08.144Z,-1.30
2018-02-26T14:56:36.765Z,-1.30
2018-02-26T14:59:05.801Z,-1.40
2018-02-26T15:01:38.827Z,-1.40
2018-02-26T15:10:02.755Z,-1.60
2018-02-26T15:12:31.085Z,-1.70
2018-02-26T15:14:59.357Z,-1.80
2018-02-26T15:17:27.642Z,-1.80
2018-02-26T15:19:55.942Z,-1.90
2018-02-26T15:22:24.249Z,-2.00
2018-02-26T15:24:52.534Z,-2.00
2018-02-26T15:27:20.816Z,-2.00
2018-02-26T15:29:49.886Z,-2.10
2018-02-26T15:32:18.155Z,-2.10
2018-02-26T15:34:46.466Z,-2.10
2018-02-26T15:37:15.515Z,-2.20
2018-02-26T15:39:43.779Z,-2.20
2018-02-26T15:42:12.095Z,-2.20
2018-02-26T15:44:41.519Z,-2.20
2018-02-26T15:47:09.886Z,-2.30
2018-02-26T15:49:38.161Z,-2.30
2018-02-26T15:52:06.526Z,-2.30
2018-02-26T15:54:34.827Z,-2.30
2018-02-26T15:57:03.103Z,-2.40
2018-02-26T15:59:31.393Z,-2.60
2018-02-26T16:02:00.447Z,-2.80
2018-02-26T16:04:29.599Z,-2.90
2018-02-26T16:06:57.911Z,-3.00
2018-02-26T16:09:26.326Z,-3.00
2018-02-26T16:11:56.107Z,-3.10
2018-02-26T16:17:18.513Z,-3.20
2018-02-26T16:19:57.520Z,-3.30
2018-02-26T16:22:27.438Z,-3.30
2018-02-26T16:25:03.673Z,-3.30
2018-02-26T16:27:55.932Z,-3.30
2018-02-26T16:30:26.166Z,-3.40
2018-02-26T16:32:55.823Z,-3.50
2018-02-26T16:35:26.705Z,-3.60
2018-02-26T16:38:06.169Z,-3.70
2018-02-26T16:40:36.412Z,-3.90
2018-02-26T16:43:05.276Z,-3.90
2018-02-26T16:45:33.566Z,-4.00
2018-02-26T16:48:01.880Z,-4.10
2018-02-26T16:50:30.919Z,-4.20
2018-02-26T16:52:59.228Z,-4.30
2018-02-26T16:55:27.511Z,-4.30
2018-02-26T16:57:55.883Z,-4.30
2018-02-26T17:00:24.193Z,-4.30
2018-02-26T17:02:52.546Z,-4.30
2018-02-26T17:05:20.851Z,-4.40
2018-02-26T17:07:50.152Z,-4.60
2018-02-26T17:10:19.176Z,-4.50
2018-02-26T17:12:47.443Z,-4.50
2018-02-26T17:15:15.750Z,-4.60
2018-02-26T17:17:44.032Z,-4.60
2018-02-26T17:20:12.396Z,-4.70
2018-02-26T17:22:40.662Z,-4.70
2018-02-26T17:25:08.967Z,-4.80
2018-02-26T17:27:37.259Z,-4.80
2018-02-26T17:30:05.594Z,-4.80
2018-02-26T17:32:33.878Z,-4.90
2018-02-26T17:35:02.236Z,-4.90
2018-02-26T17:37:30.529Z,-4.90
2018-02-26T17:39:58.819Z,-4.90
2018-02-26T17:42:27.422Z,-5.00
2018-02-26T17:44:55.702Z,-5.00
2018-02-26T17:47:24.012Z,-5.00
2018-02-26T17:49:53.262Z,-5.10
2018-02-26T17:52:22.535Z,-5.20
2018-02-26T17:54:50.825Z,-5.20
2018-02-26T17:57:26.056Z,-5.20
2018-02-26T17:59:54.839Z,-5.20
2018-02-26T18:02:23.146Z,-5.30
2018-02-26T18:04:51.471Z,-5.30
2018-02-26T18:07:20.538Z,-5.40
2018-02-26T18:09:48.916Z,-5.40
2018-02-26T18:12:17.217Z,-5.40
2018-02-26T18:14:47.056Z,-5.50
2018-02-26T18:17:15.356Z,-5.50
2018-02-26T18:19:43.676Z,-5.50
2018-02-26T18:22:11.978Z,-5.50
2018-02-26T18:24:41.935Z,-5.50
2018-02-26T18:27:10.242Z,-5.60
2018-02-26T18:59:10.619Z,-6.20
2018-02-26T19:01:39.678Z,-6.20
2018-02-26T19:04:08.004Z,-6.20
2018-02-26T19:06:36.512Z,-6.20
2018-02-26T19:09:05.812Z,-6.30
2018-02-26T19:11:34.077Z,-6.30
2018-02-26T19:14:02.432Z,-6.30
2018-02-26T19:16:31.551Z,-6.40
2018-02-26T19:18:59.869Z,-6.40
2018-02-26T19:21:28.363Z,-6.40
2018-02-26T19:23:56.804Z,-6.40
2018-02-26T19:26:25.407Z,-6.40
2018-02-26T19:28:54.625Z,-6.40
2018-02-26T19:31:22.951Z,-6.50
2018-02-26T19:33:51.972Z,-6.50
2018-02-26T19:36:20.304Z,-6.50
2018-02-26T19:38:48.616Z,-6.60
2018-02-26T19:41:16.910Z,-6.60
2018-02-26T19:43:46.036Z,-6.60
2018-02-26T19:46:15.718Z,-6.60
2018-02-26T19:48:44.073Z,-6.60
2018-02-26T19:51:13.110Z,-6.70
2018-02-26T19:53:41.456Z,-6.70
2018-02-26T19:56:09.787Z,-6.80
2018-02-26T19:58:38.378Z,-6.80
2018-02-26T20:01:06.744Z,-6.80
2018-02-26T20:03:35.837Z,-6.90
2018-02-26T20:06:04.177Z,-6.90
2018-02-26T20:08:32.693Z,-6.90
2018-02-26T20:11:01.162Z,-6.90
2018-02-26T20:13:29.441Z,-6.90
2018-02-26T20:15:57.765Z,-6.90
2018-02-26T20:18:26.866Z,-7.00
2018-02-26T20:20:55.965Z,-7.00
2018-02-26T20:23:25.034Z,-7.10
2018-02-26T20:25:53.385Z,-7.10
2018-02-26T20:28:21.727Z,-7.10
2018-02-26T20:30:51.635Z,-7.20
2018-02-26T20:33:20.784Z,-7.20
2018-02-26T20:35:49.066Z,-7.30
2018-02-26T20:38:17.486Z,-7.30
2018-02-26T20:40:46.502Z,-7.30
2018-02-26T20:43:15.678Z,-7.40
2018-02-26T20:45:43.977Z,-7.40
2018-02-26T20:48:12.355Z,-7.40
2018-02-26T20:50:40.657Z,-7.40
2018-02-26T20:53:09.096Z,-7.40
2018-02-26T20:55:38.138Z,-7.40
2018-02-26T20:58:06.710Z,-7.40
2018-02-26T21:00:35.649Z,-7.50
2018-02-26T21:03:04.323Z,-7.50
2018-02-26T21:05:32.717Z,-7.50
2018-02-26T21:08:01.031Z,-7.60
2018-02-26T21:10:29.351Z,-7.60
2018-02-26T21:12:58.447Z,-7.70
2018-02-26T21:15:26.775Z,-7.70
2018-02-26T21:17:55.517Z,-7.70
2018-02-26T21:20:23.930Z,-7.70
2018-02-26T21:22:52.355Z,-7.70
2018-02-26T21:25:20.882Z,-7.70
2018-02-26T21:27:49.215Z,-7.80
2018-02-26T21:30:17.521Z,-7.80
2018-02-26T21:32:45.945Z,-7.80
2018-02-26T21:35:14.993Z,-7.80
2018-02-26T21:37:43.641Z,-7.80
2018-02-26T21:40:11.945Z,-7.80
2018-02-26T21:42:40.241Z,-7.80
2018-02-26T21:45:08.612Z,-7.80
2018-02-26T21:47:36.934Z,-7.90
2018-02-26T21:50:06.047Z,-7.90
2018-02-26T21:52:34.388Z,-7.90
2018-02-26T21:55:02.768Z,-7.90
2018-02-26T21:57:31.081Z,-8.00
2018-02-26T22:00:00.138Z,-8.00
2018-02-26T22:02:28.457Z,-8.00
2018-02-26T22:04:56.754Z,-8.00
2018-02-26T22:07:25.012Z,-8.00
2018-02-26T22:09:54.089Z,-8.10
2018-02-26T22:12:23.150Z,-8.10
2018-02-26T22:14:51.453Z,-8.10
2018-02-26T22:17:19.744Z,-8.10
2018-02-26T22:19:48.813Z,-8.10
2018-02-26T22:22:17.109Z,-8.10
2018-02-26T22:24:45.386Z,-8.10
2018-02-26T22:27:13.722Z,-8.10
2018-02-26T22:29:42.125Z,-8.20
2018-02-26T22:32:10.425Z,-8.20
2018-02-26T22:34:38.697Z,-8.20
2018-02-26T22:37:07.006Z,-8.30
2018-02-26T22:39:36.051Z,-8.30
2018-02-26T22:42:04.341Z,-8.30
2018-02-26T22:44:32.641Z,-8.30
2018-02-26T22:47:00.928Z,-8.30
2018-02-26T22:49:29.228Z,-8.30
2018-02-26T22:51:57.590Z,-8.30
2018-02-26T22:54:27.050Z,-8.30
2018-02-26T22:56:55.315Z,-8.40
2018-02-26T22:59:23.591Z,-8.40
2018-02-26T23:01:51.927Z,-8.40
2018-02-26T23:04:20.977Z,-8.40
2018-02-26T23:06:49.283Z,-8.40
2018-02-26T23:09:17.572Z,-8.40
2018-02-26T23:11:45.849Z,-8.40
2018-02-26T23:14:14.916Z,-8.40
2018-02-26T23:16:44.051Z,-8.40
2018-02-26T23:19:13.130Z,-8.40
2018-02-26T23:21:41.412Z,-8.50
2018-02-26T23:24:09.696Z,-8.40
2018-02-26T23:26:38.754Z,-8.50
2018-02-26T23:29:07.068Z,-8.50
2018-02-26T23:31:36.121Z,-8.50
2018-02-26T23:34:04.394Z,-8.60
2018-02-26T23:36:32.702Z,-8.50
2018-02-26T23:39:00.978Z,-8.60
2018-02-26T23:41:29.283Z,-8.60
2018-02-26T23:43:58.298Z,-8.60
2018-02-26T23:46:26.612Z,-8.60
2018-02-26T23:48:54.937Z,-8.60
2018-02-26T23:51:24.014Z,-8.70
2018-02-26T23:53:52.319Z,-8.70
2018-02-26T23:56:20.630Z,-8.70
2018-02-26T23:58:48.905Z,-8.70
